sensor_id;sensor_type;location;lat;lon;timestamp;P1;durP1;ratioP1;P2;durP2;ratioP2
52888;SDS011;41413;52.770;6.892;2023-03-14T00:01:15;21.58;;;7.50;;
52888;SDS011;41413;52.770;6.892;2023-03-14T00:03:43;21.15;;;7.68;;
52888;SDS011;41413;52.770;6.892;2023-03-14T00:06:10;20.90;;;8.77;;
52888;SDS011;41413;52.770;6.892;2023-03-14T00:08:38;26.10;;;8.18;;
52888;SDS011;41413;52.770;6.892;2023-03-14T00:11:09;23.45;;;8.20;;
52888;SDS011;41413;52.770;6.892;2023-03-14T00:13:37;16.05;;;7.50;;
52888;SDS011;41413;52.770;6.892;2023-03-14T00:16:05;20.38;;;7.35;;
52888;SDS011;41413;52.770;6.892;2023-03-14T00:18:34;22.02;;;8.15;;
52888;SDS011;41413;52.770;6.892;2023-03-14T00:21:01;20.30;;;8.18;;
52888;SDS011;41413;52.770;6.892;2023-03-14T00:23:30;22.60;;;8.00;;
52888;SDS011;41413;52.770;6.892;2023-03-14T00:25:58;20.85;;;8.55;;
52888;SDS011;41413;52.770;6.892;2023-03-14T00:28:28;16.33;;;7.22;;
52888;SDS011;41413;52.770;6.892;2023-03-14T00:30:55;16.08;;;7.03;;
52888;SDS011;41413;52.770;6.892;2023-03-14T00:33:22;27.52;;;9.85;;
52888;SDS011;41413;52.770;6.892;2023-03-14T00:36:00;18.63;;;8.90;;
52888;SDS011;41413;52.770;6.892;2023-03-14T00:38:29;22.25;;;8.35;;
52888;SDS011;41413;52.770;6.892;2023-03-14T00:40:58;19.52;;;9.10;;
52888;SDS011;41413;52.770;6.892;2023-03-14T00:43:25;17.80;;;8.15;;
52888;SDS011;41413;52.770;6.892;2023-03-14T00:45:52;12.80;;;7.50;;
52888;SDS011;41413;52.770;6.892;2023-03-14T00:48:19;13.52;;;6.72;;
52888;SDS011;41413;52.770;6.892;2023-03-14T00:50:46;16.13;;;7.40;;
52888;SDS011;41413;52.770;6.892;2023-03-14T00:53:13;17.48;;;8.15;;
52888;SDS011;41413;52.770;6.892;2023-03-14T00:55:40;16.92;;;8.55;;
52888;SDS011;41413;52.770;6.892;2023-03-14T00:58:09;15.50;;;7.53;;
52888;SDS011;41413;52.770;6.892;2023-03-14T01:00:37;9.60;;;6.55;;
52888;SDS011;41413;52.770;6.892;2023-03-14T01:03:04;15.68;;;7.80;;
52888;SDS011;41413;52.770;6.892;2023-03-14T01:05:32;14.07;;;7.05;;
52888;SDS011;41413;52.770;6.892;2023-03-14T01:08:00;14.43;;;7.88;;
52888;SDS011;41413;52.770;6.892;2023-03-14T01:10:27;22.60;;;8.05;;
52888;SDS011;41413;52.770;6.892;2023-03-14T01:12:54;11.40;;;5.22;;
52888;SDS011;41413;52.770;6.892;2023-03-14T01:15:21;6.20;;;4.45;;
52888;SDS011;41413;52.770;6.892;2023-03-14T01:17:48;9.85;;;4.47;;
52888;SDS011;41413;52.770;6.892;2023-03-14T01:20:15;8.85;;;4.05;;
52888;SDS011;41413;52.770;6.892;2023-03-14T01:22:42;12.85;;;5.38;;
52888;SDS011;41413;52.770;6.892;2023-03-14T01:25:11;11.15;;;5.95;;
52888;SDS011;41413;52.770;6.892;2023-03-14T01:27:40;17.50;;;7.43;;
52888;SDS011;41413;52.770;6.892;2023-03-14T01:30:07;14.80;;;7.45;;
52888;SDS011;41413;52.770;6.892;2023-03-14T01:32:35;19.05;;;8.27;;
52888;SDS011;41413;52.770;6.892;2023-03-14T01:35:02;13.48;;;8.25;;
52888;SDS011;41413;52.770;6.892;2023-03-14T01:37:29;25.40;;;9.07;;
52888;SDS011;41413;52.770;6.892;2023-03-14T01:39:56;20.50;;;7.97;;
52888;SDS011;41413;52.770;6.892;2023-03-14T01:42:22;15.90;;;7.53;;
52888;SDS011;41413;52.770;6.892;2023-03-14T01:44:53;12.98;;;7.03;;
52888;SDS011;41413;52.770;6.892;2023-03-14T01:47:21;16.63;;;7.82;;
52888;SDS011;41413;52.770;6.892;2023-03-14T01:49:53;21.95;;;7.13;;
52888;SDS011;41413;52.770;6.892;2023-03-14T01:52:42;14.68;;;7.35;;
52888;SDS011;41413;52.770;6.892;2023-03-14T01:55:13;15.18;;;6.70;;
52888;SDS011;41413;52.770;6.892;2023-03-14T01:57:44;16.70;;;6.90;;
52888;SDS011;41413;52.770;6.892;2023-03-14T02:00:15;13.93;;;6.25;;
52888;SDS011;41413;52.770;6.892;2023-03-14T02:02:45;18.13;;;7.78;;
52888;SDS011;41413;52.770;6.892;2023-03-14T02:05:18;22.70;;;6.88;;
52888;SDS011;41413;52.770;6.892;2023-03-14T02:07:50;11.20;;;6.47;;
52888;SDS011;41413;52.770;6.892;2023-03-14T02:10:20;16.00;;;7.75;;
52888;SDS011;41413;52.770;6.892;2023-03-14T02:12:50;12.80;;;5.75;;
52888;SDS011;41413;52.770;6.892;2023-03-14T02:15:18;13.13;;;6.20;;
52888;SDS011;41413;52.770;6.892;2023-03-14T02:17:45;20.65;;;7.70;;
52888;SDS011;41413;52.770;6.892;2023-03-14T02:23:00;14.52;;;6.03;;
52888;SDS011;41413;52.770;6.892;2023-03-14T02:25:41;15.10;;;6.85;;
52888;SDS011;41413;52.770;6.892;2023-03-14T02:28:24;14.07;;;6.85;;
52888;SDS011;41413;52.770;6.892;2023-03-14T02:30:50;15.35;;;6.47;;
52888;SDS011;41413;52.770;6.892;2023-03-14T02:33:18;14.70;;;6.20;;
52888;SDS011;41413;52.770;6.892;2023-03-14T02:35:48;19.23;;;6.78;;
52888;SDS011;41413;52.770;6.892;2023-03-14T02:38:29;15.23;;;6.25;;
52888;SDS011;41413;52.770;6.892;2023-03-14T02:41:15;20.58;;;6.15;;
52888;SDS011;41413;52.770;6.892;2023-03-14T02:43:42;11.82;;;5.32;;
52888;SDS011;41413;52.770;6.892;2023-03-14T02:46:13;13.85;;;5.70;;
52888;SDS011;41413;52.770;6.892;2023-03-14T02:48:45;8.10;;;5.10;;
52888;SDS011;41413;52.770;6.892;2023-03-14T02:51:30;8.00;;;4.82;;
52888;SDS011;41413;52.770;6.892;2023-03-14T02:53:58;8.52;;;4.38;;
52888;SDS011;41413;52.770;6.892;2023-03-14T02:56:25;7.93;;;4.10;;
52888;SDS011;41413;52.770;6.892;2023-03-14T02:58:52;4.82;;;3.88;;
52888;SDS011;41413;52.770;6.892;2023-03-14T03:01:18;8.90;;;5.00;;
52888;SDS011;41413;52.770;6.892;2023-03-14T03:03:45;8.93;;;4.05;;
52888;SDS011;41413;52.770;6.892;2023-03-14T03:06:12;8.55;;;3.58;;
52888;SDS011;41413;52.770;6.892;2023-03-14T03:08:39;9.23;;;4.20;;
52888;SDS011;41413;52.770;6.892;2023-03-14T03:11:05;16.40;;;5.35;;
52888;SDS011;41413;52.770;6.892;2023-03-14T03:13:33;13.95;;;6.13;;
52888;SDS011;41413;52.770;6.892;2023-03-14T03:16:00;7.90;;;5.20;;
52888;SDS011;41413;52.770;6.892;2023-03-14T03:18:27;12.25;;;4.70;;
52888;SDS011;41413;52.770;6.892;2023-03-14T03:20:54;12.68;;;4.75;;
52888;SDS011;41413;52.770;6.892;2023-03-14T03:23:21;9.05;;;4.30;;
52888;SDS011;41413;52.770;6.892;2023-03-14T03:25:50;10.48;;;4.28;;
52888;SDS011;41413;52.770;6.892;2023-03-14T03:28:18;9.50;;;4.13;;
52888;SDS011;41413;52.770;6.892;2023-03-14T03:30:45;7.03;;;5.72;;
52888;SDS011;41413;52.770;6.892;2023-03-14T03:33:12;10.55;;;4.45;;
52888;SDS011;41413;52.770;6.892;2023-03-14T03:35:45;9.45;;;4.28;;
52888;SDS011;41413;52.770;6.892;2023-03-14T03:38:13;11.68;;;4.82;;
52888;SDS011;41413;52.770;6.892;2023-03-14T03:40:41;8.80;;;4.10;;
52888;SDS011;41413;52.770;6.892;2023-03-14T03:43:08;11.15;;;4.78;;
52888;SDS011;41413;52.770;6.892;2023-03-14T03:45:34;9.80;;;4.53;;
52888;SDS011;41413;52.770;6.892;2023-03-14T03:48:01;11.60;;;5.28;;
52888;SDS011;41413;52.770;6.892;2023-03-14T03:50:28;10.90;;;4.72;;
52888;SDS011;41413;52.770;6.892;2023-03-14T03:52:55;9.43;;;4.10;;
52888;SDS011;41413;52.770;6.892;2023-03-14T03:55:22;13.00;;;4.50;;
52888;SDS011;41413;52.770;6.892;2023-03-14T03:57:48;13.05;;;4.63;;
52888;SDS011;41413;52.770;6.892;2023-03-14T04:00:15;12.23;;;4.57;;
52888;SDS011;41413;52.770;6.892;2023-03-14T04:02:42;9.05;;;4.45;;
52888;SDS011;41413;52.770;6.892;2023-03-14T04:05:09;9.77;;;4.35;;
52888;SDS011;41413;52.770;6.892;2023-03-14T04:07:35;11.38;;;5.03;;
52888;SDS011;41413;52.770;6.892;2023-03-14T04:10:02;12.52;;;3.88;;
52888;SDS011;41413;52.770;6.892;2023-03-14T04:12:29;8.60;;;3.72;;
52888;SDS011;41413;52.770;6.892;2023-03-14T04:14:56;15.90;;;4.53;;
52888;SDS011;41413;52.770;6.892;2023-03-14T04:17:22;7.13;;;3.80;;
52888;SDS011;41413;52.770;6.892;2023-03-14T04:19:49;12.85;;;4.35;;
52888;SDS011;41413;52.770;6.892;2023-03-14T04:22:17;5.95;;;4.85;;
52888;SDS011;41413;52.770;6.892;2023-03-14T04:24:44;9.18;;;4.43;;
52888;SDS011;41413;52.770;6.892;2023-03-14T04:27:11;11.20;;;5.00;;
52888;SDS011;41413;52.770;6.892;2023-03-14T04:29:37;10.07;;;4.35;;
52888;SDS011;41413;52.770;6.892;2023-03-14T04:32:04;9.93;;;4.88;;
52888;SDS011;41413;52.770;6.892;2023-03-14T04:34:31;11.02;;;4.95;;
52888;SDS011;41413;52.770;6.892;2023-03-14T04:36:57;8.50;;;4.88;;
52888;SDS011;41413;52.770;6.892;2023-03-14T04:39:24;10.90;;;4.47;;
52888;SDS011;41413;52.770;6.892;2023-03-14T04:41:51;14.07;;;5.53;;
52888;SDS011;41413;52.770;6.892;2023-03-14T04:44:18;6.78;;;4.72;;
52888;SDS011;41413;52.770;6.892;2023-03-14T04:46:44;7.90;;;4.55;;
52888;SDS011;41413;52.770;6.892;2023-03-14T04:49:11;9.70;;;4.88;;
52888;SDS011;41413;52.770;6.892;2023-03-14T04:51:38;7.15;;;5.40;;
52888;SDS011;41413;52.770;6.892;2023-03-14T04:54:04;10.18;;;5.88;;
52888;SDS011;41413;52.770;6.892;2023-03-14T04:56:31;9.48;;;5.45;;
52888;SDS011;41413;52.770;6.892;2023-03-14T04:58:58;9.13;;;5.18;;
52888;SDS011;41413;52.770;6.892;2023-03-14T05:01:24;13.10;;;6.07;;
52888;SDS011;41413;52.770;6.892;2023-03-14T05:03:51;9.55;;;5.28;;
52888;SDS011;41413;52.770;6.892;2023-03-14T05:06:18;10.90;;;4.95;;
52888;SDS011;41413;52.770;6.892;2023-03-14T05:08:45;7.13;;;5.38;;
52888;SDS011;41413;52.770;6.892;2023-03-14T05:11:11;11.75;;;5.43;;
52888;SDS011;41413;52.770;6.892;2023-03-14T05:13:39;11.05;;;4.82;;
52888;SDS011;41413;52.770;6.892;2023-03-14T05:16:06;8.30;;;4.65;;
52888;SDS011;41413;52.770;6.892;2023-03-14T05:18:35;13.30;;;5.88;;
52888;SDS011;41413;52.770;6.892;2023-03-14T05:21:02;7.75;;;4.32;;
52888;SDS011;41413;52.770;6.892;2023-03-14T05:23:30;7.43;;;4.43;;
52888;SDS011;41413;52.770;6.892;2023-03-14T05:25:56;12.00;;;6.93;;
52888;SDS011;41413;52.770;6.892;2023-03-14T05:28:23;8.25;;;4.88;;
52888;SDS011;41413;52.770;6.892;2023-03-14T05:30:50;15.60;;;6.00;;
52888;SDS011;41413;52.770;6.892;2023-03-14T05:33:16;13.07;;;5.20;;
52888;SDS011;41413;52.770;6.892;2023-03-14T05:35:43;10.77;;;5.18;;
52888;SDS011;41413;52.770;6.892;2023-03-14T05:38:10;8.57;;;4.95;;
52888;SDS011;41413;52.770;6.892;2023-03-14T05:40:36;10.50;;;5.40;;
52888;SDS011;41413;52.770;6.892;2023-03-14T05:43:03;10.00;;;5.82;;
52888;SDS011;41413;52.770;6.892;2023-03-14T05:45:30;8.27;;;5.05;;
52888;SDS011;41413;52.770;6.892;2023-03-14T05:47:59;13.52;;;5.60;;
52888;SDS011;41413;52.770;6.892;2023-03-14T05:50:26;8.65;;;5.40;;
52888;SDS011;41413;52.770;6.892;2023-03-14T05:52:53;12.43;;;4.95;;
52888;SDS011;41413;52.770;6.892;2023-03-14T05:55:19;6.85;;;4.72;;
52888;SDS011;41413;52.770;6.892;2023-03-14T05:57:46;10.30;;;4.88;;
52888;SDS011;41413;52.770;6.892;2023-03-14T06:00:13;13.90;;;5.70;;
52888;SDS011;41413;52.770;6.892;2023-03-14T06:02:41;11.70;;;5.40;;
52888;SDS011;41413;52.770;6.892;2023-03-14T06:05:07;11.45;;;4.63;;
52888;SDS011;41413;52.770;6.892;2023-03-14T06:07:34;12.63;;;4.75;;
52888;SDS011;41413;52.770;6.892;2023-03-14T06:10:01;13.43;;;4.88;;
52888;SDS011;41413;52.770;6.892;2023-03-14T06:12:27;12.13;;;4.82;;
52888;SDS011;41413;52.770;6.892;2023-03-14T06:14:54;12.30;;;4.90;;
52888;SDS011;41413;52.770;6.892;2023-03-14T06:17:21;14.70;;;5.40;;
52888;SDS011;41413;52.770;6.892;2023-03-14T06:19:48;10.15;;;4.53;;
52888;SDS011;41413;52.770;6.892;2023-03-14T06:22:14;11.02;;;4.82;;
52888;SDS011;41413;52.770;6.892;2023-03-14T06:24:41;17.27;;;5.53;;
52888;SDS011;41413;52.770;6.892;2023-03-14T06:27:08;11.57;;;4.65;;
52888;SDS011;41413;52.770;6.892;2023-03-14T06:29:35;13.45;;;5.18;;
52888;SDS011;41413;52.770;6.892;2023-03-14T06:32:01;15.13;;;4.95;;
52888;SDS011;41413;52.770;6.892;2023-03-14T06:34:28;16.98;;;5.82;;
52888;SDS011;41413;52.770;6.892;2023-03-14T06:36:55;15.40;;;5.07;;
52888;SDS011;41413;52.770;6.892;2023-03-14T06:39:21;13.32;;;5.80;;
52888;SDS011;41413;52.770;6.892;2023-03-14T06:41:48;8.18;;;5.35;;
52888;SDS011;41413;52.770;6.892;2023-03-14T06:44:15;10.77;;;5.47;;
52888;SDS011;41413;52.770;6.892;2023-03-14T06:46:41;11.45;;;5.57;;
52888;SDS011;41413;52.770;6.892;2023-03-14T06:49:08;14.50;;;5.70;;
52888;SDS011;41413;52.770;6.892;2023-03-14T06:51:35;13.07;;;5.32;;
52888;SDS011;41413;52.770;6.892;2023-03-14T06:54:02;14.48;;;5.03;;
52888;SDS011;41413;52.770;6.892;2023-03-14T06:56:28;11.43;;;5.45;;
52888;SDS011;41413;52.770;6.892;2023-03-14T06:58:55;12.43;;;5.65;;
52888;SDS011;41413;52.770;6.892;2023-03-14T07:03:50;11.90;;;5.10;;
52888;SDS011;41413;52.770;6.892;2023-03-14T07:06:17;15.40;;;5.70;;
52888;SDS011;41413;52.770;6.892;2023-03-14T07:08:44;11.02;;;5.63;;
52888;SDS011;41413;52.770;6.892;2023-03-14T07:11:10;13.60;;;5.15;;
52888;SDS011;41413;52.770;6.892;2023-03-14T07:13:37;12.27;;;5.35;;
52888;SDS011;41413;52.770;6.892;2023-03-14T07:16:05;7.93;;;5.47;;
52888;SDS011;41413;52.770;6.892;2023-03-14T07:18:32;9.52;;;5.07;;
52888;SDS011;41413;52.770;6.892;2023-03-14T07:20:59;7.80;;;5.55;;
52888;SDS011;41413;52.770;6.892;2023-03-14T07:23:26;8.50;;;5.30;;
52888;SDS011;41413;52.770;6.892;2023-03-14T07:25:53;8.82;;;5.70;;
52888;SDS011;41413;52.770;6.892;2023-03-14T07:28:20;8.85;;;4.88;;
52888;SDS011;41413;52.770;6.892;2023-03-14T07:30:47;10.00;;;5.50;;
52888;SDS011;41413;52.770;6.892;2023-03-14T07:33:14;12.77;;;4.55;;
52888;SDS011;41413;52.770;6.892;2023-03-14T07:35:41;9.05;;;4.15;;
52888;SDS011;41413;52.770;6.892;2023-03-14T07:38:07;7.30;;;4.65;;
52888;SDS011;41413;52.770;6.892;2023-03-14T07:40:34;13.52;;;5.40;;
52888;SDS011;41413;52.770;6.892;2023-03-14T07:43:01;11.43;;;5.35;;
52888;SDS011;41413;52.770;6.892;2023-03-14T07:45:28;8.02;;;4.97;;
52888;SDS011;41413;52.770;6.892;2023-03-14T07:47:54;6.88;;;3.80;;
52888;SDS011;41413;52.770;6.892;2023-03-14T07:50:24;5.20;;;2.60;;
52888;SDS011;41413;52.770;6.892;2023-03-14T07:52:51;5.28;;;2.72;;
52888;SDS011;41413;52.770;6.892;2023-03-14T07:55:18;4.30;;;2.35;;
52888;SDS011;41413;52.770;6.892;2023-03-14T07:57:44;3.97;;;2.30;;
52888;SDS011;41413;52.770;6.892;2023-03-14T08:00:11;1.92;;;1.70;;
52888;SDS011;41413;52.770;6.892;2023-03-14T08:02:41;1.83;;;1.60;;
52888;SDS011;41413;52.770;6.892;2023-03-14T08:05:08;5.82;;;1.83;;
52888;SDS011;41413;52.770;6.892;2023-03-14T08:07:35;3.50;;;1.70;;
52888;SDS011;41413;52.770;6.892;2023-03-14T08:10:02;3.45;;;1.60;;
52888;SDS011;41413;52.770;6.892;2023-03-14T08:12:29;3.55;;;1.88;;
52888;SDS011;41413;52.770;6.892;2023-03-14T08:14:56;3.50;;;1.98;;
52888;SDS011;41413;52.770;6.892;2023-03-14T08:17:22;3.95;;;1.90;;
52888;SDS011;41413;52.770;6.892;2023-03-14T08:19:49;3.17;;;1.52;;
52888;SDS011;41413;52.770;6.892;2023-03-14T08:22:16;6.18;;;1.75;;
52888;SDS011;41413;52.770;6.892;2023-03-14T08:24:45;3.90;;;1.65;;
52888;SDS011;41413;52.770;6.892;2023-03-14T08:27:12;1.88;;;1.20;;
52888;SDS011;41413;52.770;6.892;2023-03-14T08:29:40;3.65;;;1.38;;
52888;SDS011;41413;52.770;6.892;2023-03-14T08:32:08;3.95;;;1.58;;
52888;SDS011;41413;52.770;6.892;2023-03-14T08:34:35;3.50;;;1.55;;
52888;SDS011;41413;52.770;6.892;2023-03-14T08:37:01;3.13;;;1.63;;
52888;SDS011;41413;52.770;6.892;2023-03-14T08:39:36;3.33;;;1.25;;
52888;SDS011;41413;52.770;6.892;2023-03-14T08:42:03;4.82;;;1.10;;
52888;SDS011;41413;52.770;6.892;2023-03-14T08:44:29;1.20;;;0.80;;
52888;SDS011;41413;52.770;6.892;2023-03-14T08:46:56;2.42;;;1.13;;
52888;SDS011;41413;52.770;6.892;2023-03-14T08:49:23;1.52;;;0.85;;
52888;SDS011;41413;52.770;6.892;2023-03-14T08:51:50;5.00;;;1.05;;
52888;SDS011;41413;52.770;6.892;2023-03-14T08:54:17;2.25;;;0.80;;
52888;SDS011;41413;52.770;6.892;2023-03-14T08:56:44;1.92;;;1.02;;
52888;SDS011;41413;52.770;6.892;2023-03-14T08:59:11;1.70;;;0.80;;
52888;SDS011;41413;52.770;6.892;2023-03-14T09:01:38;3.25;;;1.63;;
52888;SDS011;41413;52.770;6.892;2023-03-14T09:04:04;1.00;;;0.90;;
52888;SDS011;41413;52.770;6.892;2023-03-14T09:06:32;1.35;;;0.85;;
52888;SDS011;41413;52.770;6.892;2023-03-14T09:08:59;1.40;;;0.75;;
52888;SDS011;41413;52.770;6.892;2023-03-14T09:11:26;1.85;;;1.20;;
52888;SDS011;41413;52.770;6.892;2023-03-14T09:13:52;1.92;;;1.08;;
52888;SDS011;41413;52.770;6.892;2023-03-14T09:16:19;3.72;;;0.90;;
52888;SDS011;41413;52.770;6.892;2023-03-14T09:18:46;3.22;;;1.63;;
52888;SDS011;41413;52.770;6.892;2023-03-14T09:21:12;2.90;;;1.27;;
52888;SDS011;41413;52.770;6.892;2023-03-14T09:23:39;1.38;;;1.25;;
52888;SDS011;41413;52.770;6.892;2023-03-14T09:26:06;3.63;;;1.70;;
52888;SDS011;41413;52.770;6.892;2023-03-14T09:28:33;4.72;;;1.13;;
52888;SDS011;41413;52.770;6.892;2023-03-14T09:31:09;5.63;;;1.95;;
52888;SDS011;41413;52.770;6.892;2023-03-14T09:33:37;5.15;;;1.67;;
52888;SDS011;41413;52.770;6.892;2023-03-14T09:36:05;5.70;;;1.63;;
52888;SDS011;41413;52.770;6.892;2023-03-14T09:38:33;4.10;;;1.17;;
52888;SDS011;41413;52.770;6.892;2023-03-14T09:41:01;6.22;;;2.00;;
52888;SDS011;41413;52.770;6.892;2023-03-14T09:43:32;5.75;;;1.52;;
52888;SDS011;41413;52.770;6.892;2023-03-14T09:46:01;8.30;;;2.08;;
52888;SDS011;41413;52.770;6.892;2023-03-14T09:48:30;8.88;;;2.58;;
52888;SDS011;41413;52.770;6.892;2023-03-14T09:50:59;4.78;;;2.13;;
52888;SDS011;41413;52.770;6.892;2023-03-14T09:53:41;4.95;;;2.20;;
52888;SDS011;41413;52.770;6.892;2023-03-14T09:56:13;7.63;;;2.78;;
52888;SDS011;41413;52.770;6.892;2023-03-14T09:58:55;4.80;;;2.65;;
52888;SDS011;41413;52.770;6.892;2023-03-14T10:01:29;9.70;;;3.05;;
52888;SDS011;41413;52.770;6.892;2023-03-14T10:04:02;13.18;;;3.65;;
52888;SDS011;41413;52.770;6.892;2023-03-14T10:06:36;10.05;;;3.85;;
52888;SDS011;41413;52.770;6.892;2023-03-14T10:09:03;13.23;;;4.22;;
52888;SDS011;41413;52.770;6.892;2023-03-14T10:11:31;12.73;;;4.07;;
52888;SDS011;41413;52.770;6.892;2023-03-14T10:16:32;10.57;;;4.80;;
52888;SDS011;41413;52.770;6.892;2023-03-14T10:19:05;15.73;;;4.55;;
52888;SDS011;41413;52.770;6.892;2023-03-14T10:21:43;11.02;;;4.35;;
52888;SDS011;41413;52.770;6.892;2023-03-14T10:29:29;19.80;;;5.18;;
52888;SDS011;41413;52.770;6.892;2023-03-14T10:32:20;17.27;;;5.65;;
52888;SDS011;41413;52.770;6.892;2023-03-14T10:35:03;11.95;;;4.70;;
52888;SDS011;41413;52.770;6.892;2023-03-14T10:37:33;14.70;;;5.07;;
52888;SDS011;41413;52.770;6.892;2023-03-14T10:40:00;14.68;;;4.72;;
52888;SDS011;41413;52.770;6.892;2023-03-14T10:42:32;18.92;;;4.70;;
52888;SDS011;41413;52.770;6.892;2023-03-14T10:45:06;14.70;;;6.40;;
52888;SDS011;41413;52.770;6.892;2023-03-14T10:47:51;11.38;;;5.43;;
52888;SDS011;41413;52.770;6.892;2023-03-14T10:50:22;19.55;;;5.30;;
52888;SDS011;41413;52.770;6.892;2023-03-14T10:52:55;19.75;;;5.50;;
52888;SDS011;41413;52.770;6.892;2023-03-14T10:55:28;17.70;;;5.93;;
52888;SDS011;41413;52.770;6.892;2023-03-14T10:58:04;15.48;;;5.75;;
52888;SDS011;41413;52.770;6.892;2023-03-14T11:00:42;15.18;;;5.47;;
52888;SDS011;41413;52.770;6.892;2023-03-14T11:03:11;18.13;;;6.70;;
52888;SDS011;41413;52.770;6.892;2023-03-14T11:13:54;17.08;;;5.85;;
52888;SDS011;41413;52.770;6.892;2023-03-14T11:28:16;22.77;;;5.63;;
52888;SDS011;41413;52.770;6.892;2023-03-14T11:30:53;13.27;;;5.22;;
52888;SDS011;41413;52.770;6.892;2023-03-14T11:33:24;18.20;;;5.05;;
52888;SDS011;41413;52.770;6.892;2023-03-14T11:36:15;17.42;;;5.18;;
52888;SDS011;41413;52.770;6.892;2023-03-14T11:38:52;14.15;;;5.10;;
52888;SDS011;41413;52.770;6.892;2023-03-14T11:41:24;15.68;;;5.50;;
52888;SDS011;41413;52.770;6.892;2023-03-14T11:43:57;10.63;;;4.13;;
52888;SDS011;41413;52.770;6.892;2023-03-14T11:46:36;14.13;;;4.57;;
52888;SDS011;41413;52.770;6.892;2023-03-14T11:51:50;13.85;;;3.72;;
52888;SDS011;41413;52.770;6.892;2023-03-14T11:57:03;12.30;;;4.60;;
52888;SDS011;41413;52.770;6.892;2023-03-14T12:13:07;9.73;;;3.42;;
52888;SDS011;41413;52.770;6.892;2023-03-14T12:15:40;8.18;;;2.78;;
52888;SDS011;41413;52.770;6.892;2023-03-14T12:18:35;11.73;;;4.03;;
52888;SDS011;41413;52.770;6.892;2023-03-14T12:21:08;8.85;;;3.28;;
52888;SDS011;41413;52.770;6.892;2023-03-14T12:23:39;7.43;;;3.58;;
52888;SDS011;41413;52.770;6.892;2023-03-14T12:26:07;16.30;;;4.10;;
52888;SDS011;41413;52.770;6.892;2023-03-14T12:28:39;10.25;;;2.92;;
52888;SDS011;41413;52.770;6.892;2023-03-14T12:39:20;8.05;;;3.15;;
52888;SDS011;41413;52.770;6.892;2023-03-14T12:41:51;7.20;;;2.70;;
52888;SDS011;41413;52.770;6.892;2023-03-14T12:46:58;8.70;;;3.13;;
52888;SDS011;41413;52.770;6.892;2023-03-14T12:49:29;6.00;;;2.85;;
52888;SDS011;41413;52.770;6.892;2023-03-14T12:52:00;7.68;;;2.53;;
52888;SDS011;41413;52.770;6.892;2023-03-14T13:00:13;8.88;;;3.20;;
52888;SDS011;41413;52.770;6.892;2023-03-14T13:02:43;11.80;;;2.85;;
52888;SDS011;41413;52.770;6.892;2023-03-14T13:05:11;11.52;;;2.75;;
52888;SDS011;41413;52.770;6.892;2023-03-14T13:10:25;6.57;;;3.13;;
52888;SDS011;41413;52.770;6.892;2023-03-14T13:12:57;6.25;;;2.75;;
52888;SDS011;41413;52.770;6.892;2023-03-14T13:18:12;5.43;;;3.10;;
52888;SDS011;41413;52.770;6.892;2023-03-14T13:21:01;10.25;;;2.95;;
52888;SDS011;41413;52.770;6.892;2023-03-14T13:23:30;9.38;;;2.35;;
52888;SDS011;41413;52.770;6.892;2023-03-14T13:25:59;5.63;;;2.55;;
52888;SDS011;41413;52.770;6.892;2023-03-14T13:28:27;10.07;;;4.07;;
52888;SDS011;41413;52.770;6.892;2023-03-14T13:30:59;11.82;;;3.25;;
52888;SDS011;41413;52.770;6.892;2023-03-14T13:33:28;11.70;;;2.60;;
52888;SDS011;41413;52.770;6.892;2023-03-14T13:35:58;8.38;;;3.05;;
52888;SDS011;41413;52.770;6.892;2023-03-14T13:38:30;9.10;;;2.72;;
52888;SDS011;41413;52.770;6.892;2023-03-14T13:40:59;13.23;;;3.88;;
52888;SDS011;41413;52.770;6.892;2023-03-14T13:43:30;8.38;;;2.70;;
52888;SDS011;41413;52.770;6.892;2023-03-14T13:46:13;4.40;;;2.28;;
52888;SDS011;41413;52.770;6.892;2023-03-14T13:48:47;4.20;;;2.40;;
52888;SDS011;41413;52.770;6.892;2023-03-14T13:51:16;4.80;;;2.10;;
52888;SDS011;41413;52.770;6.892;2023-03-14T13:53:46;8.45;;;2.50;;
52888;SDS011;41413;52.770;6.892;2023-03-14T13:56:18;4.88;;;2.50;;
52888;SDS011;41413;52.770;6.892;2023-03-14T13:58:46;9.95;;;3.05;;
52888;SDS011;41413;52.770;6.892;2023-03-14T14:03:49;6.85;;;2.47;;
52888;SDS011;41413;52.770;6.892;2023-03-14T14:08:54;5.20;;;2.15;;
52888;SDS011;41413;52.770;6.892;2023-03-14T14:14:44;6.57;;;2.60;;
52888;SDS011;41413;52.770;6.892;2023-03-14T14:17:20;6.45;;;2.88;;
52888;SDS011;41413;52.770;6.892;2023-03-14T14:19:57;4.55;;;2.85;;
52888;SDS011;41413;52.770;6.892;2023-03-14T14:22:25;9.57;;;3.22;;
52888;SDS011;41413;52.770;6.892;2023-03-14T14:24:53;4.15;;;2.78;;
52888;SDS011;41413;52.770;6.892;2023-03-14T14:32:43;7.53;;;2.22;;
52888;SDS011;41413;52.770;6.892;2023-03-14T14:35:22;6.53;;;2.92;;
52888;SDS011;41413;52.770;6.892;2023-03-14T14:37:56;12.27;;;2.55;;
52888;SDS011;41413;52.770;6.892;2023-03-14T14:40:24;5.82;;;2.40;;
52888;SDS011;41413;52.770;6.892;2023-03-14T14:42:53;11.82;;;2.83;;
52888;SDS011;41413;52.770;6.892;2023-03-14T14:45:21;4.82;;;2.22;;
52888;SDS011;41413;52.770;6.892;2023-03-14T14:50:39;5.10;;;2.63;;
52888;SDS011;41413;52.770;6.892;2023-03-14T14:55:58;5.72;;;2.47;;
52888;SDS011;41413;52.770;6.892;2023-03-14T14:58:33;8.73;;;2.95;;
52888;SDS011;41413;52.770;6.892;2023-03-14T15:01:11;11.77;;;2.90;;
52888;SDS011;41413;52.770;6.892;2023-03-14T15:03:42;6.82;;;3.00;;
52888;SDS011;41413;52.770;6.892;2023-03-14T15:06:10;7.15;;;2.22;;
52888;SDS011;41413;52.770;6.892;2023-03-14T15:08:39;4.80;;;2.83;;
52888;SDS011;41413;52.770;6.892;2023-03-14T15:11:06;6.88;;;2.63;;
52888;SDS011;41413;52.770;6.892;2023-03-14T15:13:35;5.00;;;2.40;;
52888;SDS011;41413;52.770;6.892;2023-03-14T15:16:02;4.75;;;2.67;;
52888;SDS011;41413;52.770;6.892;2023-03-14T15:18:29;7.10;;;2.70;;
52888;SDS011;41413;52.770;6.892;2023-03-14T15:20:56;6.18;;;2.88;;
52888;SDS011;41413;52.770;6.892;2023-03-14T15:23:23;8.07;;;3.40;;
52888;SDS011;41413;52.770;6.892;2023-03-14T15:25:50;9.55;;;3.50;;
52888;SDS011;41413;52.770;6.892;2023-03-14T15:30:53;12.73;;;2.40;;
52888;SDS011;41413;52.770;6.892;2023-03-14T15:33:21;7.40;;;2.90;;
52888;SDS011;41413;52.770;6.892;2023-03-14T15:35:48;5.30;;;2.65;;
52888;SDS011;41413;52.770;6.892;2023-03-14T15:38:17;9.02;;;2.63;;
52888;SDS011;41413;52.770;6.892;2023-03-14T15:40:49;5.57;;;2.67;;
52888;SDS011;41413;52.770;6.892;2023-03-14T15:43:17;7.35;;;2.63;;
52888;SDS011;41413;52.770;6.892;2023-03-14T15:45:45;11.25;;;2.60;;
52888;SDS011;41413;52.770;6.892;2023-03-14T15:48:16;8.02;;;2.72;;
52888;SDS011;41413;52.770;6.892;2023-03-14T15:50:45;10.18;;;3.17;;
52888;SDS011;41413;52.770;6.892;2023-03-14T15:53:12;5.78;;;2.30;;
52888;SDS011;41413;52.770;6.892;2023-03-14T15:55:39;8.05;;;2.95;;
52888;SDS011;41413;52.770;6.892;2023-03-14T15:58:05;7.75;;;2.10;;
52888;SDS011;41413;52.770;6.892;2023-03-14T16:00:32;11.93;;;2.38;;
52888;SDS011;41413;52.770;6.892;2023-03-14T16:03:00;6.18;;;2.63;;
52888;SDS011;41413;52.770;6.892;2023-03-14T16:05:27;6.70;;;2.20;;
52888;SDS011;41413;52.770;6.892;2023-03-14T16:07:54;7.30;;;2.20;;
52888;SDS011;41413;52.770;6.892;2023-03-14T16:10:20;5.88;;;2.22;;
52888;SDS011;41413;52.770;6.892;2023-03-14T16:12:47;5.03;;;2.10;;
52888;SDS011;41413;52.770;6.892;2023-03-14T16:15:13;9.70;;;2.28;;
52888;SDS011;41413;52.770;6.892;2023-03-14T16:17:40;7.88;;;2.28;;
52888;SDS011;41413;52.770;6.892;2023-03-14T16:20:09;5.07;;;2.40;;
52888;SDS011;41413;52.770;6.892;2023-03-14T16:22:37;6.55;;;2.55;;
52888;SDS011;41413;52.770;6.892;2023-03-14T16:25:04;4.95;;;2.70;;
52888;SDS011;41413;52.770;6.892;2023-03-14T16:27:32;10.18;;;3.13;;